sensor_id;sensor_type;location;lat;lon;timestamp;P1;durP1;ratioP1;P2;durP2;ratioP2
59846;SDS011;45728;48.788;2.302;2023-03-26T00:00:37;7.93;;;2.33;;
59846;SDS011;45728;48.788;2.302;2023-03-26T00:03:05;7.47;;;2.03;;
59846;SDS011;45728;48.788;2.302;2023-03-26T00:05:32;7.07;;;2.45;;
59846;SDS011;45728;48.788;2.302;2023-03-26T00:07:58;7.38;;;2.13;;
59846;SDS011;45728;48.788;2.302;2023-03-26T00:10:24;7.93;;;2.03;;
59846;SDS011;45728;48.788;2.302;2023-03-26T00:12:50;5.25;;;1.83;;
59846;SDS011;45728;48.788;2.302;2023-03-26T00:15:16;5.78;;;2.10;;
59846;SDS011;45728;48.788;2.302;2023-03-26T00:17:42;8.70;;;2.50;;
59846;SDS011;45728;48.788;2.302;2023-03-26T00:20:11;6.72;;;2.33;;
59846;SDS011;45728;48.788;2.302;2023-03-26T00:22:38;4.95;;;1.98;;
59846;SDS011;45728;48.788;2.302;2023-03-26T00:25:05;9.50;;;2.42;;
59846;SDS011;45728;48.788;2.302;2023-03-26T00:27:32;5.40;;;2.00;;
59846;SDS011;45728;48.788;2.302;2023-03-26T00:30:01;6.47;;;2.10;;
59846;SDS011;45728;48.788;2.302;2023-03-26T00:32:28;5.72;;;2.00;;
59846;SDS011;45728;48.788;2.302;2023-03-26T00:34:55;6.78;;;1.98;;
59846;SDS011;45728;48.788;2.302;2023-03-26T00:37:22;5.93;;;2.00;;
59846;SDS011;45728;48.788;2.302;2023-03-26T00:39:54;8.65;;;2.15;;
59846;SDS011;45728;48.788;2.302;2023-03-26T00:42:27;7.70;;;2.20;;
59846;SDS011;45728;48.788;2.302;2023-03-26T00:44:53;8.18;;;2.30;;
59846;SDS011;45728;48.788;2.302;2023-03-26T00:47:22;9.10;;;2.28;;
59846;SDS011;45728;48.788;2.302;2023-03-26T00:49:49;5.85;;;1.98;;
59846;SDS011;45728;48.788;2.302;2023-03-26T00:52:16;8.60;;;2.53;;
59846;SDS011;45728;48.788;2.302;2023-03-26T00:54:46;7.45;;;2.35;;
59846;SDS011;45728;48.788;2.302;2023-03-26T00:57:12;5.65;;;1.98;;
59846;SDS011;45728;48.788;2.302;2023-03-26T00:59:39;5.53;;;1.90;;
59846;SDS011;45728;48.788;2.302;2023-03-26T01:02:06;6.78;;;1.90;;
59846;SDS011;45728;48.788;2.302;2023-03-26T01:04:35;8.40;;;2.70;;
59846;SDS011;45728;48.788;2.302;2023-03-26T01:07:12;6.60;;;1.85;;
59846;SDS011;45728;48.788;2.302;2023-03-26T01:09:46;8.38;;;2.28;;
59846;SDS011;45728;48.788;2.302;2023-03-26T01:12:19;8.38;;;2.53;;
59846;SDS011;45728;48.788;2.302;2023-03-26T01:14:47;7.28;;;2.20;;
59846;SDS011;45728;48.788;2.302;2023-03-26T01:17:15;9.25;;;2.33;;
59846;SDS011;45728;48.788;2.302;2023-03-26T01:22:19;5.57;;;2.28;;
59846;SDS011;45728;48.788;2.302;2023-03-26T01:24:47;7.60;;;2.72;;
59846;SDS011;45728;48.788;2.302;2023-03-26T01:33:20;7.97;;;2.60;;
59846;SDS011;45728;48.788;2.302;2023-03-26T01:35:36;9.57;;;2.63;;
59846;SDS011;45728;48.788;2.302;2023-03-26T01:43:36;11.98;;;2.75;;
59846;SDS011;45728;48.788;2.302;2023-03-26T01:46:10;11.65;;;2.83;;
59846;SDS011;45728;48.788;2.302;2023-03-26T01:48:40;6.67;;;2.40;;
59846;SDS011;45728;48.788;2.302;2023-03-26T01:51:08;9.98;;;2.88;;
59846;SDS011;45728;48.788;2.302;2023-03-26T01:53:42;8.02;;;2.53;;
59846;SDS011;45728;48.788;2.302;2023-03-26T01:59:53;7.60;;;2.38;;
59846;SDS011;45728;48.788;2.302;2023-03-26T02:04:48;7.53;;;2.80;;
59846;SDS011;45728;48.788;2.302;2023-03-26T02:10:24;8.57;;;2.40;;
59846;SDS011;45728;48.788;2.302;2023-03-26T02:12:53;6.72;;;2.67;;
59846;SDS011;45728;48.788;2.302;2023-03-26T02:15:20;8.52;;;2.80;;
59846;SDS011;45728;48.788;2.302;2023-03-26T02:17:47;9.05;;;2.75;;
59846;SDS011;45728;48.788;2.302;2023-03-26T02:20:14;8.48;;;2.72;;
59846;SDS011;45728;48.788;2.302;2023-03-26T02:22:43;9.45;;;3.42;;
59846;SDS011;45728;48.788;2.302;2023-03-26T02:25:16;10.50;;;3.00;;
59846;SDS011;45728;48.788;2.302;2023-03-26T02:27:44;6.55;;;2.33;;
59846;SDS011;45728;48.788;2.302;2023-03-26T02:30:15;8.88;;;2.78;;
59846;SDS011;45728;48.788;2.302;2023-03-26T02:32:43;9.00;;;2.78;;
59846;SDS011;45728;48.788;2.302;2023-03-26T02:35:10;9.60;;;3.47;;
59846;SDS011;45728;48.788;2.302;2023-03-26T02:37:37;9.35;;;3.10;;
59846;SDS011;45728;48.788;2.302;2023-03-26T02:40:04;9.40;;;3.05;;
59846;SDS011;45728;48.788;2.302;2023-03-26T02:42:36;9.90;;;3.60;;
59846;SDS011;45728;48.788;2.302;2023-03-26T02:45:03;9.07;;;2.92;;
59846;SDS011;45728;48.788;2.302;2023-03-26T02:47:30;10.07;;;2.90;;
59846;SDS011;45728;48.788;2.302;2023-03-26T02:49:58;10.35;;;3.00;;
59846;SDS011;45728;48.788;2.302;2023-03-26T02:52:24;8.38;;;2.72;;
59846;SDS011;45728;48.788;2.302;2023-03-26T02:54:50;12.15;;;3.30;;
59846;SDS011;45728;48.788;2.302;2023-03-26T02:57:16;9.50;;;3.00;;
59846;SDS011;45728;48.788;2.302;2023-03-26T02:59:42;8.02;;;2.90;;
59846;SDS011;45728;48.788;2.302;2023-03-26T03:02:10;10.25;;;3.03;;
59846;SDS011;45728;48.788;2.302;2023-03-26T03:04:38;8.32;;;2.88;;
59846;SDS011;45728;48.788;2.302;2023-03-26T03:07:04;9.75;;;3.05;;
59846;SDS011;45728;48.788;2.302;2023-03-26T03:09:30;8.18;;;2.83;;
59846;SDS011;45728;48.788;2.302;2023-03-26T03:11:56;7.10;;;2.72;;
59846;SDS011;45728;48.788;2.302;2023-03-26T03:14:22;10.50;;;3.03;;
59846;SDS011;45728;48.788;2.302;2023-03-26T03:16:48;10.55;;;2.90;;
59846;SDS011;45728;48.788;2.302;2023-03-26T03:19:14;9.05;;;2.78;;
59846;SDS011;45728;48.788;2.302;2023-03-26T03:21:40;8.95;;;2.63;;
59846;SDS011;45728;48.788;2.302;2023-03-26T03:24:07;7.80;;;2.63;;
59846;SDS011;45728;48.788;2.302;2023-03-26T03:26:36;5.67;;;2.50;;
59846;SDS011;45728;48.788;2.302;2023-03-26T03:29:02;8.05;;;2.40;;
59846;SDS011;45728;48.788;2.302;2023-03-26T03:31:28;6.60;;;2.40;;
59846;SDS011;45728;48.788;2.302;2023-03-26T03:33:54;5.18;;;2.00;;
59846;SDS011;45728;48.788;2.302;2023-03-26T03:36:21;7.75;;;2.08;;
59846;SDS011;45728;48.788;2.302;2023-03-26T03:38:48;11.23;;;2.08;;
59846;SDS011;45728;48.788;2.302;2023-03-26T03:41:15;7.93;;;2.45;;
59846;SDS011;45728;48.788;2.302;2023-03-26T03:43:43;5.88;;;2.03;;
59846;SDS011;45728;48.788;2.302;2023-03-26T03:46:10;6.05;;;2.05;;
59846;SDS011;45728;48.788;2.302;2023-03-26T03:48:36;7.15;;;1.77;;
59846;SDS011;45728;48.788;2.302;2023-03-26T03:51:02;7.47;;;2.13;;
59846;SDS011;45728;48.788;2.302;2023-03-26T03:53:29;6.20;;;2.10;;
59846;SDS011;45728;48.788;2.302;2023-03-26T03:55:55;6.03;;;2.00;;
59846;SDS011;45728;48.788;2.302;2023-03-26T03:58:23;4.93;;;1.48;;
59846;SDS011;45728;48.788;2.302;2023-03-26T04:00:53;7.90;;;1.52;;
59846;SDS011;45728;48.788;2.302;2023-03-26T04:03:27;7.65;;;1.67;;
59846;SDS011;45728;48.788;2.302;2023-03-26T04:05:53;5.45;;;1.35;;
59846;SDS011;45728;48.788;2.302;2023-03-26T04:08:23;3.97;;;1.30;;
59846;SDS011;45728;48.788;2.302;2023-03-26T04:13:16;2.80;;;1.10;;
59846;SDS011;45728;48.788;2.302;2023-03-26T04:15:42;3.47;;;1.40;;
59846;SDS011;45728;48.788;2.302;2023-03-26T04:18:09;4.25;;;1.25;;
59846;SDS011;45728;48.788;2.302;2023-03-26T04:20:36;4.68;;;1.40;;
59846;SDS011;45728;48.788;2.302;2023-03-26T04:23:03;6.55;;;1.60;;
59846;SDS011;45728;48.788;2.302;2023-03-26T04:25:30;3.80;;;1.10;;
59846;SDS011;45728;48.788;2.302;2023-03-26T04:27:59;5.45;;;1.60;;
59846;SDS011;45728;48.788;2.302;2023-03-26T04:30:31;6.75;;;1.52;;
59846;SDS011;45728;48.788;2.302;2023-03-26T04:33:01;5.25;;;1.20;;
59846;SDS011;45728;48.788;2.302;2023-03-26T04:35:30;2.35;;;1.00;;
59846;SDS011;45728;48.788;2.302;2023-03-26T04:38:01;5.53;;;1.20;;
59846;SDS011;45728;48.788;2.302;2023-03-26T04:40:30;4.70;;;1.15;;
59846;SDS011;45728;48.788;2.302;2023-03-26T04:43:02;3.80;;;1.10;;
59846;SDS011;45728;48.788;2.302;2023-03-26T04:45:28;5.78;;;1.17;;
59846;SDS011;45728;48.788;2.302;2023-03-26T04:47:56;4.20;;;1.17;;
59846;SDS011;45728;48.788;2.302;2023-03-26T04:50:23;4.88;;;1.00;;
59846;SDS011;45728;48.788;2.302;2023-03-26T04:52:51;6.65;;;1.25;;
59846;SDS011;45728;48.788;2.302;2023-03-26T04:55:32;4.97;;;1.42;;
59846;SDS011;45728;48.788;2.302;2023-03-26T04:58:04;6.78;;;1.40;;
59846;SDS011;45728;48.788;2.302;2023-03-26T05:00:30;3.42;;;1.25;;
59846;SDS011;45728;48.788;2.302;2023-03-26T05:02:57;3.78;;;1.00;;
59846;SDS011;45728;48.788;2.302;2023-03-26T05:05:26;5.97;;;1.52;;
59846;SDS011;45728;48.788;2.302;2023-03-26T05:07:53;5.20;;;1.10;;
59846;SDS011;45728;48.788;2.302;2023-03-26T05:10:20;5.95;;;1.27;;
59846;SDS011;45728;48.788;2.302;2023-03-26T05:12:47;4.40;;;1.10;;
59846;SDS011;45728;48.788;2.302;2023-03-26T05:15:13;4.50;;;1.25;;
59846;SDS011;45728;48.788;2.302;2023-03-26T05:17:40;5.97;;;1.40;;
59846;SDS011;45728;48.788;2.302;2023-03-26T05:20:09;6.13;;;1.35;;
59846;SDS011;45728;48.788;2.302;2023-03-26T05:22:49;4.28;;;1.33;;
59846;SDS011;45728;48.788;2.302;2023-03-26T05:25:15;6.35;;;1.40;;
59846;SDS011;45728;48.788;2.302;2023-03-26T05:27:42;5.95;;;1.50;;
59846;SDS011;45728;48.788;2.302;2023-03-26T05:30:10;6.30;;;1.33;;
59846;SDS011;45728;48.788;2.302;2023-03-26T05:32:40;5.28;;;1.45;;
59846;SDS011;45728;48.788;2.302;2023-03-26T05:35:06;6.45;;;1.38;;
59846;SDS011;45728;48.788;2.302;2023-03-26T05:37:33;4.78;;;1.35;;
59846;SDS011;45728;48.788;2.302;2023-03-26T05:39:59;5.15;;;1.40;;
59846;SDS011;45728;48.788;2.302;2023-03-26T05:42:25;5.55;;;1.50;;
59846;SDS011;45728;48.788;2.302;2023-03-26T05:44:51;4.60;;;1.38;;
59846;SDS011;45728;48.788;2.302;2023-03-26T05:47:17;6.07;;;1.50;;
59846;SDS011;45728;48.788;2.302;2023-03-26T05:49:44;5.47;;;1.70;;
59846;SDS011;45728;48.788;2.302;2023-03-26T05:52:11;5.70;;;1.35;;
59846;SDS011;45728;48.788;2.302;2023-03-26T05:54:40;6.25;;;1.63;;
59846;SDS011;45728;48.788;2.302;2023-03-26T05:57:06;10.10;;;2.05;;
59846;SDS011;45728;48.788;2.302;2023-03-26T05:59:32;7.10;;;1.92;;
59846;SDS011;45728;48.788;2.302;2023-03-26T06:01:58;7.03;;;1.80;;
59846;SDS011;45728;48.788;2.302;2023-03-26T06:04:25;7.28;;;1.67;;
59846;SDS011;45728;48.788;2.302;2023-03-26T06:06:52;8.63;;;1.60;;
59846;SDS011;45728;48.788;2.302;2023-03-26T06:09:18;8.63;;;2.00;;
59846;SDS011;45728;48.788;2.302;2023-03-26T06:11:44;7.53;;;1.98;;
59846;SDS011;45728;48.788;2.302;2023-03-26T06:14:11;6.95;;;1.80;;
59846;SDS011;45728;48.788;2.302;2023-03-26T06:16:37;9.40;;;2.03;;
59846;SDS011;45728;48.788;2.302;2023-03-26T06:19:03;6.03;;;2.03;;
59846;SDS011;45728;48.788;2.302;2023-03-26T06:21:29;8.40;;;2.15;;
59846;SDS011;45728;48.788;2.302;2023-03-26T06:23:55;7.70;;;1.88;;
59846;SDS011;45728;48.788;2.302;2023-03-26T06:26:21;10.65;;;2.35;;
59846;SDS011;45728;48.788;2.302;2023-03-26T06:28:47;9.40;;;2.05;;
59846;SDS011;45728;48.788;2.302;2023-03-26T06:31:13;7.25;;;1.92;;
59846;SDS011;45728;48.788;2.302;2023-03-26T06:33:41;6.82;;;1.92;;
59846;SDS011;45728;48.788;2.302;2023-03-26T06:36:08;9.00;;;2.20;;
59846;SDS011;45728;48.788;2.302;2023-03-26T06:38:34;8.95;;;2.00;;
59846;SDS011;45728;48.788;2.302;2023-03-26T06:41:01;7.95;;;2.03;;
59846;SDS011;45728;48.788;2.302;2023-03-26T06:43:27;11.82;;;2.20;;
59846;SDS011;45728;48.788;2.302;2023-03-26T06:45:59;9.85;;;2.30;;
59846;SDS011;45728;48.788;2.302;2023-03-26T06:48:25;9.02;;;2.10;;
59846;SDS011;45728;48.788;2.302;2023-03-26T06:50:51;8.38;;;2.20;;
59846;SDS011;45728;48.788;2.302;2023-03-26T06:53:17;9.25;;;2.70;;
59846;SDS011;45728;48.788;2.302;2023-03-26T06:55:43;9.25;;;2.20;;
59846;SDS011;45728;48.788;2.302;2023-03-26T06:58:10;11.02;;;2.33;;
59846;SDS011;45728;48.788;2.302;2023-03-26T07:00:37;10.48;;;2.47;;
59846;SDS011;45728;48.788;2.302;2023-03-26T07:03:04;12.07;;;2.45;;
59846;SDS011;45728;48.788;2.302;2023-03-26T07:05:30;17.27;;;2.92;;
59846;SDS011;45728;48.788;2.302;2023-03-26T07:07:56;9.70;;;2.42;;
59846;SDS011;45728;48.788;2.302;2023-03-26T07:10:22;11.65;;;2.92;;
59846;SDS011;45728;48.788;2.302;2023-03-26T07:12:48;10.98;;;2.67;;
59846;SDS011;45728;48.788;2.302;2023-03-26T07:15:15;10.13;;;2.47;;
59846;SDS011;45728;48.788;2.302;2023-03-26T07:17:41;12.27;;;2.75;;
59846;SDS011;45728;48.788;2.302;2023-03-26T07:20:07;12.23;;;3.38;;
59846;SDS011;45728;48.788;2.302;2023-03-26T07:22:34;10.77;;;2.85;;
59846;SDS011;45728;48.788;2.302;2023-03-26T07:25:00;11.32;;;2.90;;
59846;SDS011;45728;48.788;2.302;2023-03-26T07:37:49;18.70;;;3.38;;
59846;SDS011;45728;48.788;2.302;2023-03-26T07:45:53;13.43;;;2.90;;
59846;SDS011;45728;48.788;2.302;2023-03-26T07:48:22;15.07;;;3.28;;
59846;SDS011;45728;48.788;2.302;2023-03-26T07:53:18;12.95;;;3.58;;
59846;SDS011;45728;48.788;2.302;2023-03-26T07:55:48;14.98;;;3.10;;
59846;SDS011;45728;48.788;2.302;2023-03-26T08:06:49;13.73;;;3.03;;
59846;SDS011;45728;48.788;2.302;2023-03-26T08:09:31;16.35;;;3.35;;
59846;SDS011;45728;48.788;2.302;2023-03-26T08:12:23;13.05;;;3.35;;
59846;SDS011;45728;48.788;2.302;2023-03-26T08:21:07;13.82;;;3.22;;
59846;SDS011;45728;48.788;2.302;2023-03-26T08:31:51;15.13;;;3.30;;
59846;SDS011;45728;48.788;2.302;2023-03-26T08:34:19;13.00;;;3.33;;
59846;SDS011;45728;48.788;2.302;2023-03-26T08:36:45;13.43;;;3.05;;
59846;SDS011;45728;48.788;2.302;2023-03-26T08:39:12;14.75;;;3.22;;
59846;SDS011;45728;48.788;2.302;2023-03-26T09:07:00;8.07;;;1.92;;
59846;SDS011;45728;48.788;2.302;2023-03-26T09:09:59;6.93;;;1.70;;
59846;SDS011;45728;48.788;2.302;2023-03-26T09:26:41;4.95;;;1.80;;
59846;SDS011;45728;48.788;2.302;2023-03-26T09:32:07;4.72;;;1.50;;
59846;SDS011;45728;48.788;2.302;2023-03-26T09:40:14;6.13;;;2.00;;
59846;SDS011;45728;48.788;2.302;2023-03-26T09:48:55;6.57;;;1.80;;
59846;SDS011;45728;48.788;2.302;2023-03-26T09:54:49;3.78;;;1.25;;
59846;SDS011;45728;48.788;2.302;2023-03-26T09:57:48;4.35;;;1.10;;
59846;SDS011;45728;48.788;2.302;2023-03-26T10:00:28;6.28;;;1.70;;
59846;SDS011;45728;48.788;2.302;2023-03-26T10:06:09;4.35;;;1.30;;
59846;SDS011;45728;48.788;2.302;2023-03-26T10:08:58;4.85;;;1.42;;
59846;SDS011;45728;48.788;2.302;2023-03-26T10:11:32;4.10;;;1.40;;
59846;SDS011;45728;48.788;2.302;2023-03-26T10:14:27;6.80;;;1.40;;
59846;SDS011;45728;48.788;2.302;2023-03-26T10:19:51;4.90;;;1.40;;
59846;SDS011;45728;48.788;2.302;2023-03-26T10:22:53;3.90;;;1.30;;
59846;SDS011;45728;48.788;2.302;2023-03-26T10:28:38;3.22;;;1.50;;
59846;SDS011;45728;48.788;2.302;2023-03-26T10:45:09;3.97;;;1.10;;
59846;SDS011;45728;48.788;2.302;2023-03-26T10:51:08;5.43;;;1.42;;
59846;SDS011;45728;48.788;2.302;2023-03-26T10:53:53;7.38;;;1.75;;
59846;SDS011;45728;48.788;2.302;2023-03-26T10:59:06;3.58;;;1.30;;
59846;SDS011;45728;48.788;2.302;2023-03-26T11:01:41;3.28;;;1.38;;
59846;SDS011;45728;48.788;2.302;2023-03-26T11:09:30;5.15;;;1.30;;
59846;SDS011;45728;48.788;2.302;2023-03-26T11:12:51;6.63;;;1.83;;
59846;SDS011;45728;48.788;2.302;2023-03-26T11:15:19;5.57;;;1.35;;
59846;SDS011;45728;48.788;2.302;2023-03-26T11:25:50;4.38;;;1.20;;
59846;SDS011;45728;48.788;2.302;2023-03-26T11:33:38;6.25;;;1.42;;
59846;SDS011;45728;48.788;2.302;2023-03-26T11:36:11;4.95;;;1.30;;
59846;SDS011;45728;48.788;2.302;2023-03-26T11:38:41;4.00;;;1.30;;
59846;SDS011;45728;48.788;2.302;2023-03-26T11:41:12;2.20;;;1.20;;
59846;SDS011;45728;48.788;2.302;2023-03-26T11:43:42;4.20;;;1.50;;
59846;SDS011;45728;48.788;2.302;2023-03-26T11:46:15;3.22;;;1.10;;
59846;SDS011;45728;48.788;2.302;2023-03-26T11:48:54;2.47;;;1.10;;
59846;SDS011;45728;48.788;2.302;2023-03-26T11:51:30;4.22;;;1.35;;
59846;SDS011;45728;48.788;2.302;2023-03-26T11:54:01;4.35;;;1.00;;
59846;SDS011;45728;48.788;2.302;2023-03-26T11:56:32;2.78;;;1.13;;
59846;SDS011;45728;48.788;2.302;2023-03-26T11:59:08;2.88;;;1.10;;
59846;SDS011;45728;48.788;2.302;2023-03-26T12:04:26;2.35;;;0.70;;
59846;SDS011;45728;48.788;2.302;2023-03-26T12:10:04;4.18;;;1.15;;
59846;SDS011;45728;48.788;2.302;2023-03-26T12:12:42;2.80;;;1.00;;
59846;SDS011;45728;48.788;2.302;2023-03-26T12:15:15;6.07;;;1.80;;
59846;SDS011;45728;48.788;2.302;2023-03-26T12:17:44;2.65;;;1.10;;
59846;SDS011;45728;48.788;2.302;2023-03-26T12:22:47;3.58;;;0.73;;
59846;SDS011;45728;48.788;2.302;2023-03-26T12:27:46;2.85;;;1.00;;
59846;SDS011;45728;48.788;2.302;2023-03-26T12:32:46;2.25;;;1.15;;
59846;SDS011;45728;48.788;2.302;2023-03-26T12:35:14;5.38;;;1.10;;
59846;SDS011;45728;48.788;2.302;2023-03-26T12:37:45;2.83;;;1.15;;
59846;SDS011;45728;48.788;2.302;2023-03-26T12:42:53;3.33;;;1.08;;
59846;SDS011;45728;48.788;2.302;2023-03-26T12:45:22;4.60;;;1.33;;
59846;SDS011;45728;48.788;2.302;2023-03-26T12:47:53;4.43;;;1.10;;
59846;SDS011;45728;48.788;2.302;2023-03-26T12:50:22;3.88;;;1.42;;
59846;SDS011;45728;48.788;2.302;2023-03-26T12:53:15;3.20;;;1.23;;
59846;SDS011;45728;48.788;2.302;2023-03-26T12:55:58;4.32;;;1.50;;
59846;SDS011;45728;48.788;2.302;2023-03-26T12:58:37;3.53;;;1.38;;
59846;SDS011;45728;48.788;2.302;2023-03-26T13:06:44;3.03;;;1.13;;
59846;SDS011;45728;48.788;2.302;2023-03-26T13:09:23;2.95;;;1.30;;
59846;SDS011;45728;48.788;2.302;2023-03-26T13:20:18;2.42;;;0.82;;
59846;SDS011;45728;48.788;2.302;2023-03-26T13:33:57;2.10;;;1.17;;
59846;SDS011;45728;48.788;2.302;2023-03-26T13:36:56;2.83;;;0.80;;
59846;SDS011;45728;48.788;2.302;2023-03-26T13:39:46;2.38;;;0.93;;
59846;SDS011;45728;48.788;2.302;2023-03-26T13:46:12;1.92;;;0.88;;
59846;SDS011;45728;48.788;2.302;2023-03-26T13:48:19;0.95;;;0.63;;
59846;SDS011;45728;48.788;2.302;2023-03-26T13:50:56;2.90;;;1.02;;
59846;SDS011;45728;48.788;2.302;2023-03-26T13:54:08;8.43;;;1.17;;
59846;SDS011;45728;48.788;2.302;2023-03-26T13:56:40;2.40;;;0.70;;
59846;SDS011;45728;48.788;2.302;2023-03-26T13:59:12;1.35;;;0.50;;
59846;SDS011;45728;48.788;2.302;2023-03-26T14:02:01;1.58;;;0.68;;
59846;SDS011;45728;48.788;2.302;2023-03-26T14:04:35;1.05;;;0.60;;
59846;SDS011;45728;48.788;2.302;2023-03-26T14:09:45;2.03;;;0.50;;
59846;SDS011;45728;48.788;2.302;2023-03-26T14:12:17;4.88;;;2.85;;
59846;SDS011;45728;48.788;2.302;2023-03-26T14:14:53;1.25;;;0.60;;
59846;SDS011;45728;48.788;2.302;2023-03-26T14:27:37;2.60;;;0.80;;
59846;SDS011;45728;48.788;2.302;2023-03-26T14:30:41;1.67;;;0.63;;
59846;SDS011;45728;48.788;2.302;2023-03-26T14:33:25;4.53;;;1.10;;
59846;SDS011;45728;48.788;2.302;2023-03-26T14:47:13;3.17;;;0.88;;
59846;SDS011;45728;48.788;2.302;2023-03-26T14:49:52;2.20;;;0.80;;
59846;SDS011;45728;48.788;2.302;2023-03-26T14:52:50;1.70;;;0.80;;
59846;SDS011;45728;48.788;2.302;2023-03-26T15:01:02;2.22;;;0.70;;
59846;SDS011;45728;48.788;2.302;2023-03-26T15:14:02;3.53;;;1.15;;
59846;SDS011;45728;48.788;2.302;2023-03-26T15:28:10;1.98;;;0.80;;
59846;SDS011;45728;48.788;2.302;2023-03-26T15:39:39;2.65;;;0.60;;
59846;SDS011;45728;48.788;2.302;2023-03-26T15:42:52;2.22;;;0.90;;
59846;SDS011;45728;48.788;2.302;2023-03-26T15:45:25;1.95;;;0.75;;
59846;SDS011;45728;48.788;2.302;2023-03-26T15:56:16;2.40;;;0.85;;
59846;SDS011;45728;48.788;2.302;2023-03-26T16:04:42;1.30;;;0.82;;
59846;SDS011;45728;48.788;2.302;2023-03-26T16:15:48;1.27;;;0.90;;
59846;SDS011;45728;48.788;2.302;2023-03-26T16:18:36;2.15;;;1.00;;
59846;SDS011;45728;48.788;2.302;2023-03-26T16:26:36;3.07;;;1.20;;
59846;SDS011;45728;48.788;2.302;2023-03-26T16:29:25;2.40;;;1.00;;
59846;SDS011;45728;48.788;2.302;2023-03-26T16:34:58;1.38;;;0.80;;
59846;SDS011;45728;48.788;2.302;2023-03-26T16:37:34;2.58;;;0.80;;
59846;SDS011;45728;48.788;2.302;2023-03-26T16:45:57;3.70;;;0.75;;
59846;SDS011;45728;48.788;2.302;2023-03-26T16:48:37;1.85;;;0.77;;
59846;SDS011;45728;48.788;2.302;2023-03-26T16:51:26;1.58;;;0.77;;
59846;SDS011;45728;48.788;2.302;2023-03-26T16:54:17;3.10;;;0.80;;
59846;SDS011;45728;48.788;2.302;2023-03-26T16:56:59;1.98;;;0.90;;
59846;SDS011;45728;48.788;2.302;2023-03-26T17:05:18;2.83;;;1.30;;
59846;SDS011;45728;48.788;2.302;2023-03-26T17:10:54;2.67;;;1.23;;
59846;SDS011;45728;48.788;2.302;2023-03-26T17:13:25;4.38;;;1.63;;
59846;SDS011;45728;48.788;2.302;2023-03-26T17:16:22;4.97;;;1.60;;
59846;SDS011;45728;48.788;2.302;2023-03-26T17:35:36;4.57;;;1.50;;
59846;SDS011;45728;48.788;2.302;2023-03-26T17:40:53;4.57;;;1.42;;
59846;SDS011;45728;48.788;2.302;2023-03-26T17:43:38;3.78;;;1.23;;
59846;SDS011;45728;48.788;2.302;2023-03-26T17:48:53;5.40;;;1.70;;
59846;SDS011;45728;48.788;2.302;2023-03-26T17:51:37;4.40;;;1.30;;
59846;SDS011;45728;48.788;2.302;2023-03-26T17:57:03;3.15;;;1.38;;
59846;SDS011;45728;48.788;2.302;2023-03-26T17:59:44;4.97;;;1.52;;
59846;SDS011;45728;48.788;2.302;2023-03-26T18:02:13;1.50;;;1.00;;
59846;SDS011;45728;48.788;2.302;2023-03-26T18:04:42;3.05;;;1.55;;
59846;SDS011;45728;48.788;2.302;2023-03-26T18:15:47;2.53;;;1.00;;
59846;SDS011;45728;48.788;2.302;2023-03-26T18:18:48;2.58;;;0.90;;
59846;SDS011;45728;48.788;2.302;2023-03-26T18:21:36;3.70;;;1.30;;
59846;SDS011;45728;48.788;2.302;2023-03-26T18:24:05;1.90;;;0.98;;
59846;SDS011;45728;48.788;2.302;2023-03-26T18:26:37;2.03;;;1.00;;
59846;SDS011;45728;48.788;2.302;2023-03-26T18:31:44;1.25;;;1.10;;
59846;SDS011;45728;48.788;2.302;2023-03-26T18:34:14;4.28;;;1.33;;
59846;SDS011;45728;48.788;2.302;2023-03-26T18:39:27;3.05;;;1.20;;
59846;SDS011;45728;48.788;2.302;2023-03-26T18:41:53;0.85;;;0.80;;
59846;SDS011;45728;48.788;2.302;2023-03-26T18:44:19;1.10;;;0.80;;
59846;SDS011;45728;48.788;2.302;2023-03-26T18:46:46;1.58;;;0.88;;
59846;SDS011;45728;48.788;2.302;2023-03-26T18:49:13;1.25;;;0.60;;
59846;SDS011;45728;48.788;2.302;2023-03-26T18:51:41;1.35;;;0.80;;
59846;SDS011;45728;48.788;2.302;2023-03-26T18:54:08;1.10;;;1.00;;
59846;SDS011;45728;48.788;2.302;2023-03-26T18:56:45;1.08;;;0.80;;
59846;SDS011;45728;48.788;2.302;2023-03-26T19:01:53;1.35;;;1.17;;
59846;SDS011;45728;48.788;2.302;2023-03-26T19:04:22;3.95;;;1.60;;
59846;SDS011;45728;48.788;2.302;2023-03-26T19:06:51;2.08;;;1.50;;
59846;SDS011;45728;48.788;2.302;2023-03-26T19:09:19;1.85;;;1.63;;
59846;SDS011;45728;48.788;2.302;2023-03-26T19:11:47;2.10;;;1.70;;
59846;SDS011;45728;48.788;2.302;2023-03-26T19:14:16;2.03;;;1.45;;
59846;SDS011;45728;48.788;2.302;2023-03-26T19:16:45;2.30;;;1.50;;
59846;SDS011;45728;48.788;2.302;2023-03-26T19:19:21;1.77;;;1.50;;
59846;SDS011;45728;48.788;2.302;2023-03-26T19:21:51;1.67;;;1.27;;
59846;SDS011;45728;48.788;2.302;2023-03-26T19:24:18;1.50;;;1.40;;
59846;SDS011;45728;48.788;2.302;2023-03-26T19:26:45;1.50;;;1.40;;
59846;SDS011;45728;48.788;2.302;2023-03-26T19:29:13;1.45;;;1.35;;
59846;SDS011;45728;48.788;2.302;2023-03-26T19:34:13;1.60;;;1.30;;
59846;SDS011;45728;48.788;2.302;2023-03-26T19:39:34;1.50;;;1.40;;
59846;SDS011;45728;48.788;2.302;2023-03-26T19:42:06;1.50;;;1.40;;
59846;SDS011;45728;48.788;2.302;2023-03-26T19:44:42;1.52;;;1.38;;
59846;SDS011;45728;48.788;2.302;2023-03-26T19:47:15;1.80;;;1.70;;
59846;SDS011;45728;48.788;2.302;2023-03-26T19:49:49;2.03;;;1.63;;
59846;SDS011;45728;48.788;2.302;2023-03-26T19:52:21;2.17;;;1.98;;
59846;SDS011;45728;48.788;2.302;2023-03-26T19:57:38;2.53;;;2.33;;
59846;SDS011;45728;48.788;2.302;2023-03-26T20:00:04;2.40;;;2.20;;
59846;SDS011;45728;48.788;2.302;2023-03-26T20:02:38;3.97;;;2.30;;
59846;SDS011;45728;48.788;2.302;2023-03-26T20:05:20;2.40;;;2.20;;
59846;SDS011;45728;48.788;2.302;2023-03-26T20:07:48;3.47;;;2.70;;
59846;SDS011;45728;48.788;2.302;2023-03-26T20:10:14;2.95;;;2.50;;
59846;SDS011;45728;48.788;2.302;2023-03-26T20:12:41;3.55;;;2.80;;
59846;SDS011;45728;48.788;2.302;2023-03-26T20:15:40;4.72;;;3.20;;
59846;SDS011;45728;48.788;2.302;2023-03-26T20:18:00;4.47;;;3.80;;
59846;SDS011;45728;48.788;2.302;2023-03-26T20:20:26;6.75;;;4.07;;
59846;SDS011;45728;48.788;2.302;2023-03-26T20:22:53;5.13;;;4.03;;
59846;SDS011;45728;48.788;2.302;2023-03-26T20:25:20;4.55;;;4.00;;
59846;SDS011;45728;48.788;2.302;2023-03-26T20:27:50;4.82;;;4.43;;
59846;SDS011;45728;48.788;2.302;2023-03-26T20:30:22;4.85;;;4.38;;
59846;SDS011;45728;48.788;2.302;2023-03-26T20:32:49;5.68;;;5.03;;
59846;SDS011;45728;48.788;2.302;2023-03-26T20:35:16;7.90;;;5.85;;
59846;SDS011;45728;48.788;2.302;2023-03-26T20:37:45;9.90;;;5.97;;
59846;SDS011;45728;48.788;2.302;2023-03-26T20:40:12;10.30;;;6.63;;
59846;SDS011;45728;48.788;2.302;2023-03-26T20:42:39;9.98;;;6.53;;
59846;SDS011;45728;48.788;2.302;2023-03-26T20:45:17;7.60;;;5.90;;
59846;SDS011;45728;48.788;2.302;2023-03-26T20:47:45;9.13;;;5.57;;
59846;SDS011;45728;48.788;2.302;2023-03-26T20:50:14;13.73;;;5.97;;
59846;SDS011;45728;48.788;2.302;2023-03-26T20:52:41;12.77;;;5.80;;
59846;SDS011;45728;48.788;2.302;2023-03-26T20:55:10;11.60;;;5.95;;
59846;SDS011;45728;48.788;2.302;2023-03-26T20:57:38;12.40;;;5.80;;
59846;SDS011;45728;48.788;2.302;2023-03-26T21:00:04;10.15;;;5.57;;
59846;SDS011;45728;48.788;2.302;2023-03-26T21:02:43;10.63;;;5.63;;
59846;SDS011;45728;48.788;2.302;2023-03-26T21:05:09;14.98;;;5.57;;
59846;SDS011;45728;48.788;2.302;2023-03-26T21:10:12;17.05;;;4.95;;
59846;SDS011;45728;48.788;2.302;2023-03-26T21:13:16;15.02;;;5.00;;
59846;SDS011;45728;48.788;2.302;2023-03-26T21:15:38;12.57;;;3.93;;
59846;SDS011;45728;48.788;2.302;2023-03-26T21:18:04;14.68;;;4.40;;
59846;SDS011;45728;48.788;2.302;2023-03-26T21:20:31;18.25;;;4.78;;
59846;SDS011;45728;48.788;2.302;2023-03-26T21:25:56;13.20;;;4.75;;
59846;SDS011;45728;48.788;2.302;2023-03-26T21:31:22;13.73;;;5.00;;